sensor_id;sensor_type;location;lat;lon;timestamp;pressure;altitude;pressure_sealevel;temperature;humidity
18145;BME280;14857;41.200;-8.326;2022-11-20T00:01:37;100865.28;;;14.27;100.00
18145;BME280;14857;41.200;-8.326;2022-11-20T00:04:06;100836.28;;;14.15;100.00
18145;BME280;14857;41.200;-8.326;2022-11-20T00:06:34;100863.06;;;14.33;100.00
18145;BME280;14857;41.200;-8.326;2022-11-20T00:09:03;100854.31;;;14.33;100.00
18145;BME280;14857;41.200;-8.326;2022-11-20T00:11:33;100856.03;;;14.34;100.00
18145;BME280;14857;41.200;-8.326;2022-11-20T00:14:01;100870.28;;;14.42;100.00
18145;BME280;14857;41.200;-8.326;2022-11-20T00:16:32;100864.41;;;14.39;100.00
18145;BME280;14857;41.200;-8.326;2022-11-20T00:19:02;100831.25;;;14.12;100.00
18145;BME280;14857;41.200;-8.326;2022-11-20T00:21:31;100870.75;;;14.36;100.00
18145;BME280;14857;41.200;-8.326;2022-11-20T00:23:59;100877.47;;;14.40;100.00
18145;BME280;14857;41.200;-8.326;2022-11-20T00:26:29;100870.41;;;14.41;100.00
18145;BME280;14857;41.200;-8.326;2022-11-20T00:28:58;100871.88;;;14.32;100.00
18145;BME280;14857;41.200;-8.326;2022-11-20T00:31:28;100846.16;;;14.25;100.00
18145;BME280;14857;41.200;-8.326;2022-11-20T00:34:13;100858.66;;;14.34;100.00
18145;BME280;14857;41.200;-8.326;2022-11-20T00:36:42;100854.44;;;14.31;100.00
18145;BME280;14857;41.200;-8.326;2022-11-20T00:39:10;100852.06;;;14.15;100.00
18145;BME280;14857;41.200;-8.326;2022-11-20T00:41:39;100848.31;;;14.07;100.00
18145;BME280;14857;41.200;-8.326;2022-11-20T00:44:08;100861.81;;;14.26;100.00
18145;BME280;14857;41.200;-8.326;2022-11-20T00:46:36;100855.78;;;14.37;100.00
18145;BME280;14857;41.200;-8.326;2022-11-20T00:49:05;100851.03;;;14.42;100.00
18145;BME280;14857;41.200;-8.326;2022-11-20T00:51:35;100858.47;;;14.48;100.00
18145;BME280;14857;41.200;-8.326;2022-11-20T00:54:04;100850.63;;;14.35;100.00
18145;BME280;14857;41.200;-8.326;2022-11-20T00:56:32;100858.91;;;14.42;100.00
18145;BME280;14857;41.200;-8.326;2022-11-20T00:59:01;100862.06;;;14.47;100.00
18145;BME280;14857;41.200;-8.326;2022-11-20T01:01:29;100851.03;;;14.42;100.00
18145;BME280;14857;41.200;-8.326;2022-11-20T01:03:59;100847.22;;;14.46;100.00
18145;BME280;14857;41.200;-8.326;2022-11-20T01:06:29;100847.94;;;14.48;100.00
18145;BME280;14857;41.200;-8.326;2022-11-20T01:09:01;100846.16;;;14.48;100.00
18145;BME280;14857;41.200;-8.326;2022-11-20T01:11:35;100845.53;;;14.45;100.00
18145;BME280;14857;41.200;-8.326;2022-11-20T01:14:05;100849.94;;;14.44;100.00
18145;BME280;14857;41.200;-8.326;2022-11-20T01:16:36;100843.88;;;14.44;100.00
18145;BME280;14857;41.200;-8.326;2022-11-20T01:19:07;100851.53;;;14.47;100.00
18145;BME280;14857;41.200;-8.326;2022-11-20T01:21:37;100847.94;;;14.48;100.00
18145;BME280;14857;41.200;-8.326;2022-11-20T01:24:13;100840.78;;;14.50;100.00
18145;BME280;14857;41.200;-8.326;2022-11-20T01:26:43;100838.72;;;14.42;100.00
18145;BME280;14857;41.200;-8.326;2022-11-20T01:29:14;100836.53;;;14.36;100.00
18145;BME280;14857;41.200;-8.326;2022-11-20T01:31:43;100830.94;;;14.41;100.00
18145;BME280;14857;41.200;-8.326;2022-11-20T01:34:13;100828.94;;;14.32;100.00
18145;BME280;14857;41.200;-8.326;2022-11-20T01:36:43;100837.91;;;14.29;100.00
18145;BME280;14857;41.200;-8.326;2022-11-20T01:39:14;100845.03;;;14.40;100.00
18145;BME280;14857;41.200;-8.326;2022-11-20T01:41:44;100832.84;;;14.39;100.00
18145;BME280;14857;41.200;-8.326;2022-11-20T01:44:50;100811.78;;;14.39;100.00
18145;BME280;14857;41.200;-8.326;2022-11-20T01:47:26;100817.28;;;14.36;100.00
18145;BME280;14857;41.200;-8.326;2022-11-20T01:50:00;100833.13;;;14.47;100.00
18145;BME280;14857;41.200;-8.326;2022-11-20T01:52:34;100825.22;;;14.47;100.00
18145;BME280;14857;41.200;-8.326;2022-11-20T01:55:09;100812.63;;;14.39;100.00
18145;BME280;14857;41.200;-8.326;2022-11-20T01:57:40;100831.22;;;14.49;100.00
18145;BME280;14857;41.200;-8.326;2022-11-20T02:00:12;100839.31;;;14.46;100.00
18145;BME280;14857;41.200;-8.326;2022-11-20T02:02:44;100833.59;;;14.52;100.00
18145;BME280;14857;41.200;-8.326;2022-11-20T02:05:22;100830.97;;;14.52;100.00
18145;BME280;14857;41.200;-8.326;2022-11-20T02:07:52;100819.91;;;14.36;100.00
18145;BME280;14857;41.200;-8.326;2022-11-20T02:10:26;100830.63;;;14.33;100.00
18145;BME280;14857;41.200;-8.326;2022-11-20T02:12:55;100828.53;;;14.38;100.00
18145;BME280;14857;41.200;-8.326;2022-11-20T02:15:41;100823.53;;;14.46;100.00
18145;BME280;14857;41.200;-8.326;2022-11-20T02:18:11;100804.56;;;14.30;100.00
18145;BME280;14857;41.200;-8.326;2022-11-20T02:20:53;100794.69;;;14.44;100.00
18145;BME280;14857;41.200;-8.326;2022-11-20T02:23:33;100771.59;;;14.37;100.00
18145;BME280;14857;41.200;-8.326;2022-11-20T02:26:12;100806.81;;;14.58;100.00
18145;BME280;14857;41.200;-8.326;2022-11-20T02:28:41;100797.59;;;14.52;100.00
18145;BME280;14857;41.200;-8.326;2022-11-20T02:31:22;100789.00;;;14.50;100.00
18145;BME280;14857;41.200;-8.326;2022-11-20T02:33:54;100793.94;;;14.66;100.00
18145;BME280;14857;41.200;-8.326;2022-11-20T02:36:24;100790.56;;;14.64;100.00
18145;BME280;14857;41.200;-8.326;2022-11-20T02:38:54;100788.53;;;14.56;100.00
18145;BME280;14857;41.200;-8.326;2022-11-20T02:41:32;100796.34;;;14.69;100.00
18145;BME280;14857;41.200;-8.326;2022-11-20T02:44:01;100793.19;;;14.64;100.00
18145;BME280;14857;41.200;-8.326;2022-11-20T02:46:30;100791.41;;;14.64;100.00
18145;BME280;14857;41.200;-8.326;2022-11-20T02:49:00;100782.66;;;14.64;100.00
18145;BME280;14857;41.200;-8.326;2022-11-20T02:51:29;100754.13;;;14.36;100.00
18145;BME280;14857;41.200;-8.326;2022-11-20T02:53:58;100789.22;;;14.47;100.00
18145;BME280;14857;41.200;-8.326;2022-11-20T02:56:27;100800.63;;;14.59;100.00
18145;BME280;14857;41.200;-8.326;2022-11-20T02:58:57;100796.56;;;14.66;100.00
18145;BME280;14857;41.200;-8.326;2022-11-20T03:01:25;100806.34;;;14.64;100.00
18145;BME280;14857;41.200;-8.326;2022-11-20T03:03:54;100794.66;;;14.57;100.00
18145;BME280;14857;41.200;-8.326;2022-11-20T03:06:23;100792.50;;;14.62;100.00
18145;BME280;14857;41.200;-8.326;2022-11-20T03:08:51;100788.38;;;14.47;100.00
18145;BME280;14857;41.200;-8.326;2022-11-20T03:11:20;100793.59;;;14.36;100.00
18145;BME280;14857;41.200;-8.326;2022-11-20T03:13:49;100807.81;;;14.33;100.00
18145;BME280;14857;41.200;-8.326;2022-11-20T03:16:21;100798.34;;;14.31;100.00
18145;BME280;14857;41.200;-8.326;2022-11-20T03:18:52;100818.03;;;14.25;100.00
18145;BME280;14857;41.200;-8.326;2022-11-20T03:21:20;100829.03;;;14.43;100.00
18145;BME280;14857;41.200;-8.326;2022-11-20T03:23:49;100824.16;;;14.49;100.00
18145;BME280;14857;41.200;-8.326;2022-11-20T03:26:19;100814.94;;;14.55;100.00
18145;BME280;14857;41.200;-8.326;2022-11-20T03:28:50;100818.19;;;14.58;100.00
18145;BME280;14857;41.200;-8.326;2022-11-20T03:31:22;100812.84;;;14.60;100.00
18145;BME280;14857;41.200;-8.326;2022-11-20T03:33:52;100810.13;;;14.38;100.00
18145;BME280;14857;41.200;-8.326;2022-11-20T03:36:21;100798.56;;;14.28;100.00
18145;BME280;14857;41.200;-8.326;2022-11-20T03:38:50;100789.44;;;14.20;100.00
18145;BME280;14857;41.200;-8.326;2022-11-20T03:41:20;100810.97;;;14.26;100.00
18145;BME280;14857;41.200;-8.326;2022-11-20T03:43:49;100818.59;;;14.41;100.00
18145;BME280;14857;41.200;-8.326;2022-11-20T03:46:20;100812.13;;;14.69;100.00
18145;BME280;14857;41.200;-8.326;2022-11-20T03:48:49;100806.81;;;14.58;100.00
18145;BME280;14857;41.200;-8.326;2022-11-20T03:51:19;100794.75;;;14.55;100.00
18145;BME280;14857;41.200;-8.326;2022-11-20T03:53:49;100788.53;;;14.56;100.00
18145;BME280;14857;41.200;-8.326;2022-11-20T03:56:22;100798.13;;;14.68;100.00
18145;BME280;14857;41.200;-8.326;2022-11-20T03:58:51;100784.50;;;14.75;100.00
18145;BME280;14857;41.200;-8.326;2022-11-20T04:01:22;100786.78;;;14.90;100.00
18145;BME280;14857;41.200;-8.326;2022-11-20T04:03:51;100772.66;;;14.80;100.00
18145;BME280;14857;41.200;-8.326;2022-11-20T04:06:22;100783.41;;;14.66;100.00
18145;BME280;14857;41.200;-8.326;2022-11-20T04:08:53;100786.16;;;14.64;100.00
18145;BME280;14857;41.200;-8.326;2022-11-20T04:11:23;100786.00;;;14.55;100.00
18145;BME280;14857;41.200;-8.326;2022-11-20T04:13:54;100792.44;;;14.51;100.00
18145;BME280;14857;41.200;-8.326;2022-11-20T04:16:26;100791.50;;;14.52;100.00
18145;BME280;14857;41.200;-8.326;2022-11-20T04:18:57;100795.53;;;14.45;100.00
18145;BME280;14857;41.200;-8.326;2022-11-20T04:21:26;100759.44;;;14.23;100.00
18145;BME280;14857;41.200;-8.326;2022-11-20T04:23:55;100800.34;;;14.51;100.00
18145;BME280;14857;41.200;-8.326;2022-11-20T04:26:26;100806.03;;;14.68;100.00
18145;BME280;14857;41.200;-8.326;2022-11-20T04:28:55;100808.66;;;14.68;100.00
18145;BME280;14857;41.200;-8.326;2022-11-20T04:31:27;100803.06;;;14.84;100.00
18145;BME280;14857;41.200;-8.326;2022-11-20T04:33:59;100803.66;;;14.88;100.00
18145;BME280;14857;41.200;-8.326;2022-11-20T04:36:28;100811.59;;;14.99;100.00
18145;BME280;14857;41.200;-8.326;2022-11-20T04:38:58;100804.41;;;15.01;100.00
18145;BME280;14857;41.200;-8.326;2022-11-20T04:41:29;100784.91;;;14.92;100.00
18145;BME280;14857;41.200;-8.326;2022-11-20T04:43:59;100794.94;;;14.87;100.00
18145;BME280;14857;41.200;-8.326;2022-11-20T04:46:34;100799.16;;;15.01;100.00
18145;BME280;14857;41.200;-8.326;2022-11-20T04:49:03;100792.56;;;14.95;100.00
18145;BME280;14857;41.200;-8.326;2022-11-20T04:51:32;100784.06;;;15.03;100.00
18145;BME280;14857;41.200;-8.326;2022-11-20T04:54:00;100789.91;;;15.06;100.00
18145;BME280;14857;41.200;-8.326;2022-11-20T04:56:29;100788.13;;;14.96;100.00
18145;BME280;14857;41.200;-8.326;2022-11-20T04:59:00;100781.56;;;15.01;100.00
18145;BME280;14857;41.200;-8.326;2022-11-20T05:04:40;100790.41;;;15.00;100.00
18145;BME280;14857;41.200;-8.326;2022-11-20T05:07:08;100791.38;;;15.10;100.00
18145;BME280;14857;41.200;-8.326;2022-11-20T05:09:37;100792.69;;;15.16;100.00
18145;BME280;14857;41.200;-8.326;2022-11-20T05:12:07;100784.78;;;15.05;100.00
18145;BME280;14857;41.200;-8.326;2022-11-20T05:14:35;100803.69;;;15.10;100.00
18145;BME280;14857;41.200;-8.326;2022-11-20T05:17:04;100787.06;;;15.09;100.00
18145;BME280;14857;41.200;-8.326;2022-11-20T05:19:33;100788.72;;;15.10;100.00
18145;BME280;14857;41.200;-8.326;2022-11-20T05:22:04;100803.81;;;15.19;100.00
18145;BME280;14857;41.200;-8.326;2022-11-20T05:24:32;100785.03;;;15.02;100.00
18145;BME280;14857;41.200;-8.326;2022-11-20T05:27:01;100799.38;;;15.09;100.00
18145;BME280;14857;41.200;-8.326;2022-11-20T05:29:30;100787.06;;;15.09;100.00
18145;BME280;14857;41.200;-8.326;2022-11-20T05:31:58;100793.16;;;15.10;100.00
18145;BME280;14857;41.200;-8.326;2022-11-20T05:34:27;100785.03;;;15.02;100.00
18145;BME280;14857;41.200;-8.326;2022-11-20T05:36:56;100800.00;;;15.23;100.00
18145;BME280;14857;41.200;-8.326;2022-11-20T05:39:25;100793.28;;;15.31;100.00
18145;BME280;14857;41.200;-8.326;2022-11-20T05:41:54;100790.41;;;15.22;100.00
18145;BME280;14857;41.200;-8.326;2022-11-20T05:44:36;100793.28;;;15.31;100.00
18145;BME280;14857;41.200;-8.326;2022-11-20T05:47:05;100784.78;;;15.27;100.00
18145;BME280;14857;41.200;-8.326;2022-11-20T05:49:33;100782.97;;;15.16;100.00
18145;BME280;14857;41.200;-8.326;2022-11-20T05:52:02;100793.03;;;15.22;100.00
18145;BME280;14857;41.200;-8.326;2022-11-20T05:54:32;100795.19;;;15.29;100.00
18145;BME280;14857;41.200;-8.326;2022-11-20T05:57:01;100788.84;;;15.20;100.00
18145;BME280;14857;41.200;-8.326;2022-11-20T05:59:29;100792.31;;;15.32;100.00
18145;BME280;14857;41.200;-8.326;2022-11-20T06:01:58;100780.72;;;15.12;100.00
18145;BME280;14857;41.200;-8.326;2022-11-20T06:04:26;100796.66;;;15.21;100.00
18145;BME280;14857;41.200;-8.326;2022-11-20T06:06:55;100808.00;;;15.22;100.00
18145;BME280;14857;41.200;-8.326;2022-11-20T06:09:23;100802.41;;;15.27;100.00
18145;BME280;14857;41.200;-8.326;2022-11-20T06:11:53;100799.88;;;15.36;100.00
18145;BME280;14857;41.200;-8.326;2022-11-20T06:14:22;100805.88;;;15.27;100.00
18145;BME280;14857;41.200;-8.326;2022-11-20T06:16:51;100803.59;;;15.11;100.00
18145;BME280;14857;41.200;-8.326;2022-11-20T06:19:19;100804.06;;;15.05;100.00
18145;BME280;14857;41.200;-8.326;2022-11-20T06:21:48;100793.06;;;15.11;100.00
18145;BME280;14857;41.200;-8.326;2022-11-20T06:24:17;100808.59;;;15.25;100.00
18145;BME280;14857;41.200;-8.326;2022-11-20T06:26:45;100790.41;;;15.22;100.00
18145;BME280;14857;41.200;-8.326;2022-11-20T06:29:15;100807.06;;;15.34;100.00
18145;BME280;14857;41.200;-8.326;2022-11-20T06:31:44;100806.94;;;15.24;100.00
18145;BME280;14857;41.200;-8.326;2022-11-20T06:34:12;100801.44;;;15.28;100.00
18145;BME280;14857;41.200;-8.326;2022-11-20T06:36:41;100798.44;;;15.10;100.00
18145;BME280;14857;41.200;-8.326;2022-11-20T06:39:10;100792.44;;;15.08;100.00
18145;BME280;14857;41.200;-8.326;2022-11-20T06:41:38;100819.16;;;15.25;100.00
18145;BME280;14857;41.200;-8.326;2022-11-20T06:44:07;100821.44;;;15.30;100.00
18145;BME280;14857;41.200;-8.326;2022-11-20T06:46:37;100816.78;;;15.34;100.00
18145;BME280;14857;41.200;-8.326;2022-11-20T06:49:05;100822.88;;;15.34;100.00
18145;BME280;14857;41.200;-8.326;2022-11-20T06:51:34;100817.00;;;15.31;100.00
18145;BME280;14857;41.200;-8.326;2022-11-20T06:54:02;100815.09;;;15.33;100.00
18145;BME280;14857;41.200;-8.326;2022-11-20T06:56:31;100820.34;;;15.33;100.00
18145;BME280;14857;41.200;-8.326;2022-11-20T06:59:03;100824.94;;;15.53;100.00
18145;BME280;14857;41.200;-8.326;2022-11-20T07:01:32;100805.03;;;15.27;100.00
18145;BME280;14857;41.200;-8.326;2022-11-20T07:04:03;100821.91;;;15.46;100.00
18145;BME280;14857;41.200;-8.326;2022-11-20T07:06:32;100823.72;;;15.46;100.00
18145;BME280;14857;41.200;-8.326;2022-11-20T07:09:00;100807.56;;;15.28;100.00
18145;BME280;14857;41.200;-8.326;2022-11-20T07:11:29;100824.06;;;15.41;100.00
18145;BME280;14857;41.200;-8.326;2022-11-20T07:13:58;100814.97;;;15.34;100.00
18145;BME280;14857;41.200;-8.326;2022-11-20T07:16:26;100818.09;;;15.28;100.00
18145;BME280;14857;41.200;-8.326;2022-11-20T07:18:55;100828.50;;;15.41;100.00
18145;BME280;14857;41.200;-8.326;2022-11-20T07:21:25;100828.03;;;15.47;100.00
18145;BME280;14857;41.200;-8.326;2022-11-20T07:23:54;100831.75;;;15.55;100.00
18145;BME280;14857;41.200;-8.326;2022-11-20T07:26:22;100839.56;;;15.57;100.00
18145;BME280;14857;41.200;-8.326;2022-11-20T07:28:51;100844.59;;;15.60;100.00
18145;BME280;14857;41.200;-8.326;2022-11-20T07:31:19;100822.16;;;15.54;100.00
18145;BME280;14857;41.200;-8.326;2022-11-20T07:33:48;100787.53;;;15.25;100.00
18145;BME280;14857;41.200;-8.326;2022-11-20T07:36:17;100836.19;;;15.55;100.00
18145;BME280;14857;41.200;-8.326;2022-11-20T07:38:47;100757.00;;;15.23;100.00
18145;BME280;14857;41.200;-8.326;2022-11-20T07:41:15;100814.75;;;15.48;100.00
18145;BME280;14857;41.200;-8.326;2022-11-20T07:43:44;100798.31;;;15.45;100.00
18145;BME280;14857;41.200;-8.326;2022-11-20T07:46:12;100849.38;;;15.66;100.00
18145;BME280;14857;41.200;-8.326;2022-11-20T07:48:41;100801.69;;;15.47;100.00
18145;BME280;14857;41.200;-8.326;2022-11-20T07:51:09;100805.03;;;15.49;100.00
18145;BME280;14857;41.200;-8.326;2022-11-20T07:53:38;100849.00;;;15.82;100.00
18145;BME280;14857;41.200;-8.326;2022-11-20T07:56:08;100849.94;;;15.81;100.00
18145;BME280;14857;41.200;-8.326;2022-11-20T07:58:36;100794.25;;;15.30;100.00
18145;BME280;14857;41.200;-8.326;2022-11-20T08:01:06;100815.09;;;15.55;100.00
18145;BME280;14857;41.200;-8.326;2022-11-20T08:03:35;100817.50;;;15.24;100.00
18145;BME280;14857;41.200;-8.326;2022-11-20T08:06:06;100827.81;;;15.50;100.00
18145;BME280;14857;41.200;-8.326;2022-11-20T08:08:35;100872.63;;;15.83;100.00
18145;BME280;14857;41.200;-8.326;2022-11-20T08:11:10;100829.38;;;15.63;100.00
18145;BME280;14857;41.200;-8.326;2022-11-20T08:13:56;100839.88;;;15.74;100.00
18145;BME280;14857;41.200;-8.326;2022-11-20T08:16:41;100872.09;;;16.00;100.00
18145;BME280;14857;41.200;-8.326;2022-11-20T08:19:09;100839.66;;;15.77;100.00
18145;BME280;14857;41.200;-8.326;2022-11-20T08:21:38;100844.06;;;15.88;100.00
18145;BME280;14857;41.200;-8.326;2022-11-20T08:24:07;100850.53;;;15.95;100.00
18145;BME280;14857;41.200;-8.326;2022-11-20T08:26:38;100825.38;;;15.80;100.00
18145;BME280;14857;41.200;-8.326;2022-11-20T08:29:07;100854.13;;;15.94;100.00
18145;BME280;14857;41.200;-8.326;2022-11-20T08:31:36;100831.88;;;15.76;100.00
18145;BME280;14857;41.200;-8.326;2022-11-20T08:34:04;100885.63;;;16.18;100.00
18145;BME280;14857;41.200;-8.326;2022-11-20T08:36:35;100802.66;;;15.57;100.00
18145;BME280;14857;41.200;-8.326;2022-11-20T08:39:04;100887.94;;;16.00;100.00
18145;BME280;14857;41.200;-8.326;2022-11-20T08:41:33;100897.78;;;15.98;100.00
18145;BME280;14857;41.200;-8.326;2022-11-20T08:44:05;100903.53;;;15.92;100.00
18145;BME280;14857;41.200;-8.326;2022-11-20T08:46:36;100868.44;;;15.69;100.00
18145;BME280;14857;41.200;-8.326;2022-11-20T08:49:06;100914.81;;;16.05;100.00
18145;BME280;14857;41.200;-8.326;2022-11-20T08:51:35;100911.78;;;16.10;100.00
18145;BME280;14857;41.200;-8.326;2022-11-20T08:54:05;100864.56;;;15.96;100.00
18145;BME280;14857;41.200;-8.326;2022-11-20T08:56:34;100870.16;;;16.13;100.00
18145;BME280;14857;41.200;-8.326;2022-11-20T08:59:04;100895.97;;;16.42;100.00
18145;BME280;14857;41.200;-8.326;2022-11-20T09:01:52;100913.47;;;16.65;100.00
18145;BME280;14857;41.200;-8.326;2022-11-20T09:04:21;100877.25;;;16.45;100.00
18145;BME280;14857;41.200;-8.326;2022-11-20T09:06:49;100848.78;;;16.27;100.00
18145;BME280;14857;41.200;-8.326;2022-11-20T09:09:19;100873.03;;;16.21;100.00
18145;BME280;14857;41.200;-8.326;2022-11-20T09:11:48;100907.16;;;16.77;100.00
18145;BME280;14857;41.200;-8.326;2022-11-20T09:14:19;100872.63;;;16.69;100.00
18145;BME280;14857;41.200;-8.326;2022-11-20T09:16:48;100874.75;;;16.75;100.00
18145;BME280;14857;41.200;-8.326;2022-11-20T09:19:16;100906.31;;;17.08;100.00
18145;BME280;14857;41.200;-8.326;2022-11-20T09:22:02;100873.28;;;16.82;100.00
18145;BME280;14857;41.200;-8.326;2022-11-20T09:24:31;100866.88;;;16.96;100.00
18145;BME280;14857;41.200;-8.326;2022-11-20T09:27:02;100869.69;;;17.04;100.00
18145;BME280;14857;41.200;-8.326;2022-11-20T09:29:33;100887.41;;;17.33;100.00
18145;BME280;14857;41.200;-8.326;2022-11-20T09:32:01;100891.63;;;17.15;100.00
18145;BME280;14857;41.200;-8.326;2022-11-20T09:34:30;100823.22;;;16.80;100.00
18145;BME280;14857;41.200;-8.326;2022-11-20T09:36:58;100884.44;;;17.06;100.00
18145;BME280;14857;41.200;-8.326;2022-11-20T09:39:32;100864.88;;;17.09;100.00
18145;BME280;14857;41.200;-8.326;2022-11-20T09:42:17;100834.16;;;16.97;100.00
18145;BME280;14857;41.200;-8.326;2022-11-20T09:45:05;100833.53;;;17.04;100.00
18145;BME280;14857;41.200;-8.326;2022-11-20T09:47:50;100858.88;;;17.37;100.00
18145;BME280;14857;41.200;-8.326;2022-11-20T09:50:29;100861.16;;;17.51;100.00
18145;BME280;14857;41.200;-8.326;2022-11-20T09:53:11;100892.34;;;17.78;100.00
18145;BME280;14857;41.200;-8.326;2022-11-20T09:55:40;100894.22;;;17.57;100.00
18145;BME280;14857;41.200;-8.326;2022-11-20T09:58:16;100905.84;;;17.75;100.00
18145;BME280;14857;41.200;-8.326;2022-11-20T10:00:50;100897.66;;;17.78;100.00
18145;BME280;14857;41.200;-8.326;2022-11-20T10:03:29;100900.66;;;17.43;100.00
18145;BME280;14857;41.200;-8.326;2022-11-20T10:06:03;100920.03;;;17.74;100.00
18145;BME280;14857;41.200;-8.326;2022-11-20T10:08:40;100914.31;;;17.99;100.00
18145;BME280;14857;41.200;-8.326;2022-11-20T10:11:15;100911.47;;;17.91;100.00
18145;BME280;14857;41.200;-8.326;2022-11-20T10:13:51;100914.28;;;17.90;100.00
18145;BME280;14857;41.200;-8.326;2022-11-20T10:16:36;100900.56;;;17.75;100.00
18145;BME280;14857;41.200;-8.326;2022-11-20T10:19:26;100918.97;;;17.76;100.00
18145;BME280;14857;41.200;-8.326;2022-11-20T10:22:07;100913.97;;;17.83;100.00
18145;BME280;14857;41.200;-8.326;2022-11-20T10:24:43;100922.59;;;17.85;100.00
18145;BME280;14857;41.200;-8.326;2022-11-20T10:27:34;100922.19;;;17.80;100.00
18145;BME280;14857;41.200;-8.326;2022-11-20T10:30:09;100917.09;;;17.47;100.00
18145;BME280;14857;41.200;-8.326;2022-11-20T10:32:44;100922.72;;;17.53;100.00
18145;BME280;14857;41.200;-8.326;2022-11-20T10:35:20;100923.88;;;17.19;100.00
18145;BME280;14857;41.200;-8.326;2022-11-20T10:37:54;100932.22;;;17.14;100.00
18145;BME280;14857;41.200;-8.326;2022-11-20T10:40:29;100942.47;;;17.08;100.00
18145;BME280;14857;41.200;-8.326;2022-11-20T10:43:01;100934.91;;;17.03;100.00
18145;BME280;14857;41.200;-8.326;2022-11-20T10:45:42;100946.06;;;17.27;100.00
18145;BME280;14857;41.200;-8.326;2022-11-20T10:48:16;100958.72;;;17.45;100.00
18145;BME280;14857;41.200;-8.326;2022-11-20T10:50:55;100946.41;;;17.34;100.00
18145;BME280;14857;41.200;-8.326;2022-11-20T10:53:38;100933.19;;;17.34;100.00
18145;BME280;14857;41.200;-8.326;2022-11-20T10:56:14;100951.25;;;17.70;100.00
18145;BME280;14857;41.200;-8.326;2022-11-20T10:58:52;100923.31;;;17.57;100.00
18145;BME280;14857;41.200;-8.326;2022-11-20T11:01:22;100919.69;;;17.58;100.00
18145;BME280;14857;41.200;-8.326;2022-11-20T11:03:53;100912.50;;;17.49;100.00
18145;BME280;14857;41.200;-8.326;2022-11-20T11:06:29;100925.22;;;17.55;100.00
18145;BME280;14857;41.200;-8.326;2022-11-20T11:09:03;100940.66;;;17.50;100.00
18145;BME280;14857;41.200;-8.326;2022-11-20T11:11:38;100927.38;;;17.40;100.00
18145;BME280;14857;41.200;-8.326;2022-11-20T11:14:07;100931.50;;;17.33;100.00
18145;BME280;14857;41.200;-8.326;2022-11-20T11:16:48;100927.22;;;17.42;100.00
18145;BME280;14857;41.200;-8.326;2022-11-20T11:19:19;100921.03;;;17.52;100.00
18145;BME280;14857;41.200;-8.326;2022-11-20T11:21:51;100933.28;;;17.74;100.00
18145;BME280;14857;41.200;-8.326;2022-11-20T11:24:23;100910.59;;;17.81;100.00
18145;BME280;14857;41.200;-8.326;2022-11-20T11:27:12;100916.13;;;18.08;100.00
18145;BME280;14857;41.200;-8.326;2022-11-20T11:29:45;100910.19;;;18.25;100.00
18145;BME280;14857;41.200;-8.326;2022-11-20T11:32:17;100900.72;;;18.32;100.00
18145;BME280;14857;41.200;-8.326;2022-11-20T11:35:00;100879.53;;;18.32;100.00
18145;BME280;14857;41.200;-8.326;2022-11-20T11:37:33;100882.34;;;18.41;100.00
18145;BME280;14857;41.200;-8.326;2022-11-20T11:40:03;100877.59;;;18.25;100.00
18145;BME280;14857;41.200;-8.326;2022-11-20T11:42:56;100881.50;;;18.30;100.00
18145;BME280;14857;41.200;-8.326;2022-11-20T11:45:26;100871.44;;;18.15;100.00
18145;BME280;14857;41.200;-8.326;2022-11-20T11:47:55;100883.88;;;18.33;100.00
18145;BME280;14857;41.200;-8.326;2022-11-20T11:50:27;100869.22;;;18.39;100.00
18145;BME280;14857;41.200;-8.326;2022-11-20T11:53:05;100868.53;;;18.27;100.00
18145;BME280;14857;41.200;-8.326;2022-11-20T11:55:40;100867.56;;;18.38;100.00
18145;BME280;14857;41.200;-8.326;2022-11-20T11:58:26;100858.91;;;18.36;100.00
18145;BME280;14857;41.200;-8.326;2022-11-20T12:01:02;100844.53;;;18.10;100.00
18145;BME280;14857;41.200;-8.326;2022-11-20T12:03:35;100849.41;;;18.14;100.00
18145;BME280;14857;41.200;-8.326;2022-11-20T12:06:11;100850.56;;;18.21;100.00
18145;BME280;14857;41.200;-8.326;2022-11-20T12:08:45;100851.69;;;18.38;100.00
18145;BME280;14857;41.200;-8.326;2022-11-20T12:11:20;100846.81;;;18.53;100.00
18145;BME280;14857;41.200;-8.326;2022-11-20T12:13:55;100778.34;;;18.10;100.00
18145;BME280;14857;41.200;-8.326;2022-11-20T12:16:24;100837.44;;;18.49;100.00
18145;BME280;14857;41.200;-8.326;2022-11-20T12:18:53;100836.88;;;18.35;100.00
18145;BME280;14857;41.200;-8.326;2022-11-20T12:21:31;100833.16;;;18.38;100.00
18145;BME280;14857;41.200;-8.326;2022-11-20T12:24:11;100833.88;;;18.50;100.00
18145;BME280;14857;41.200;-8.326;2022-11-20T12:26:55;100820.72;;;18.38;100.00
18145;BME280;14857;41.200;-8.326;2022-11-20T12:29:35;100820.47;;;18.42;100.00
18145;BME280;14857;41.200;-8.326;2022-11-20T12:38:31;100816.56;;;18.65;100.00
18145;BME280;14857;41.200;-8.326;2022-11-20T12:41:43;100804.78;;;19.06;100.00
18145;BME280;14857;41.200;-8.326;2022-11-20T12:44:51;100792.59;;;19.22;100.00
18145;BME280;14857;41.200;-8.326;2022-11-20T12:47:48;100789.97;;;19.03;100.00
18145;BME280;14857;41.200;-8.326;2022-11-20T12:50:23;100784.72;;;19.30;100.00
18145;BME280;14857;41.200;-8.326;2022-11-20T12:53:04;100778.88;;;19.64;100.00
18145;BME280;14857;41.200;-8.326;2022-11-20T12:55:42;100775.50;;;19.62;100.00
18145;BME280;14857;41.200;-8.326;2022-11-20T12:58:22;100762.28;;;19.97;100.00
18145;BME280;14857;41.200;-8.326;2022-11-20T13:00:58;100766.75;;;20.14;100.00
18145;BME280;14857;41.200;-8.326;2022-11-20T13:03:42;100754.47;;;20.13;100.00
18145;BME280;14857;41.200;-8.326;2022-11-20T13:06:16;100733.75;;;20.17;100.00